Time;durP1;ratioP1;P1;durP2;ratioP2;P2;SDS_P1;SDS_P2;PMS_P1;PMS_P2;Temp;Humidity;BMP_temperature;BMP_pressure;BME280_temperature;BME280_humidity;BME280_pressure;Samples;Min_cycle;Max_cycle;Signal;HPM_P1;HPM_P2
2022/06/02 00:00:12;;;;;;;;;;;;;;;21.63;46.76;95318.75;2082055;28;1064;-65
2022/06/02 00:01:19;;;;;;;;;;;;;;;21.67;46.99;95308.44;2080444;28;1680;-65
2022/06/02 00:02:27;;;;;;;;;;;;;;;21.66;46.81;95312.16;2081371;28;1177;-66
2022/06/02 00:03:34;;;;;;;;;;;;;;;21.58;46.94;95307.03;2081211;28;1813;-65
2022/06/02 00:04:41;;;;;;;;;;;;;;;21.54;46.82;95306.66;2078839;28;1682;-65
2022/06/02 00:05:51;;;;;;;;;;;;;;;21.54;47.01;95309.31;2081348;28;1462;-65
2022/06/02 00:06:59;;;;;;;;;;;;;;;21.53;47.14;95313.00;2079690;28;1533;-66
2022/06/02 00:08:02;;;;;;;;;;;;;;;;;;2080582;28;1745;-64
2022/06/02 00:09:10;;;;;;;;;;;;;;;21.50;47.04;95313.44;2076776;28;1466;-63
2022/06/02 00:10:20;;;;;;;;;;;;;;;21.48;47.24;95315.47;2075937;28;1824;-63
2022/06/02 00:11:33;;;;;;;;;;;;;;;21.51;47.32;95309.72;2081478;28;1461;-64
2022/06/02 00:12:41;;;;;;;;;;;;;;;21.45;47.27;95316.75;2081116;28;1483;-60
2022/06/02 00:13:48;;;;;;;;;;;;;;;21.48;47.24;95310.13;2081093;28;1556;-64
2022/06/02 00:14:54;;;;;;;;;;;;;;;21.49;47.19;95310.97;2080715;28;1489;-64
2022/06/02 00:15:59;;;;;;;;;;;;;;;21.52;47.25;95306.03;2081414;28;1509;-64
2022/06/02 00:17:04;;;;;;;;;;;;;;;21.59;47.10;95306.81;2081192;28;1636;-64
2022/06/02 00:18:11;;;;;;;;;;;;;;;21.62;46.94;95302.91;2081832;28;1114;-64
2022/06/02 00:19:21;;;;;;;;;;;;;;;21.54;47.12;95303.13;2080441;28;1983;-64
2022/06/02 00:20:30;;;;;;;;;;;;;;;21.54;47.18;95303.97;2073253;28;1513;-64
2022/06/02 00:21:36;;;;;;;;;;;;;;;21.57;47.03;95305.38;2075862;28;1559;-65
2022/06/02 00:22:42;;;;;;;;;;;;;;;21.56;47.25;95301.88;2081890;28;1054;-64
2022/06/02 00:23:48;;;;;;;;;;;;;;;21.57;46.84;95302.72;2080465;28;1444;-64
2022/06/02 00:24:56;;;;;;;;;;;;;;;21.54;47.38;95297.78;2080947;28;1520;-64
2022/06/02 00:26:03;;;;;;;;;;;;;;;21.50;47.44;95297.38;2080924;28;1517;-65
2022/06/02 00:27:17;;;;;;;;;;;;;;;21.48;47.46;95299.44;2081936;28;1134;-65
2022/06/02 00:28:28;;;;;;;;;;;;;;;21.47;47.43;95297.00;2081013;28;1540;-65
2022/06/02 00:29:36;;;;;;;;;;;;;;;21.45;47.39;95295.38;2080279;28;1483;-66
2022/06/02 00:30:44;;;;;;;;;;;;;;;21.45;47.17;95295.38;2081629;28;1358;-66
2022/06/02 00:31:51;;;;;;;;;;;;;;;21.50;47.14;95293.91;2077346;28;1119;-65
2022/06/02 00:33:01;;;;;;;;;;;;;;;21.50;47.19;95293.91;2076782;28;1288;-64
2022/06/02 00:34:06;;;;;;;;;;;;;;;21.51;47.09;95300.88;2081867;28;1717;-66
2022/06/02 00:35:16;;;;;;;;;;;;;;;21.46;47.23;95301.53;2080974;28;1532;-63
2022/06/02 00:36:22;;;;;;;;;;;;;;;21.44;47.25;95300.91;2081278;28;1564;-63
2022/06/02 00:37:28;;;;;;;;;;;;;;;21.46;47.23;95296.19;2080974;28;1697;-66
2022/06/02 00:38:34;;;;;;;;;;;;;;;21.45;47.26;95287.34;2081731;28;995;-66
2022/06/02 00:39:36;;;;;;;;;;;;;;;21.40;47.58;95289.81;2079866;28;1967;-65
2022/06/02 00:40:40;;;;;;;;;;;;;;;21.36;47.73;95293.94;2073446;28;1518;-66
2022/06/02 00:41:44;;;;;;;;;;;;;;;21.33;47.89;95296.22;2079595;28;1447;-65
2022/06/02 00:42:54;;;;;;;;;;;;;;;21.29;47.60;95289.66;2080810;28;1489;-67
2022/06/02 00:44:07;;;;;;;;;;;;;;;21.37;47.79;95287.56;2074488;28;1544;-63
2022/06/02 00:45:12;;;;;;;;;;;;;;;21.56;47.10;95296.53;2081989;28;1027;-64
2022/06/02 00:46:18;;;;;;;;;;;;;;;21.61;47.17;95294.06;2080720;28;1389;-63
2022/06/02 00:47:29;;;;;;;;;;;;;;;21.66;47.09;95294.25;2081188;28;1618;-63
2022/06/02 00:48:38;;;;;;;;;;;;;;;21.67;46.90;95292.41;2080110;28;1130;-64
2022/06/02 00:49:48;;;;;;;;;;;;;;;21.64;46.90;95301.66;2081725;28;1734;-64
2022/06/02 00:50:54;;;;;;;;;;;;;;;21.68;46.87;95297.56;2081257;28;1061;-64
2022/06/02 00:52:00;;;;;;;;;;;;;;;21.66;46.81;95304.13;2081623;28;1150;-63
2022/06/02 00:53:05;;;;;;;;;;;;;;;21.63;46.89;95301.88;2081929;28;1030;-64
2022/06/02 00:58:32;;;;;;;;;;;;;;;21.54;47.42;95298.63;2073767;28;1648;-64
2022/06/02 00:59:38;;;;;;;;;;;;;;;21.54;47.39;95292.44;2080676;28;1906;-62
2022/06/02 01:00:44;;;;;;;;;;;;;;;21.56;47.28;95296.53;2081425;28;1129;-64
2022/06/02 01:01:46;;;;;;;;;;;;;;;21.53;47.43;95302.31;2081633;28;1106;-66
2022/06/02 01:02:51;;;;;;;;;;;;;;;21.53;47.50;95296.16;2082073;28;1056;-63
2022/06/02 01:03:54;;;;;;;;;;;;;;;21.53;47.26;95293.47;2080691;28;1403;-62
2022/06/02 01:05:00;;;;;;;;;;;;;;;21.54;47.50;95293.28;2081010;28;1623;-63
2022/06/02 01:06:08;;;;;;;;;;;;;;;21.53;47.59;95296.16;2076532;28;1240;-62
2022/06/02 01:07:16;;;;;;;;;;;;;;;21.53;47.58;95305.00;2077769;28;1078;-63
2022/06/02 01:08:25;;;;;;;;;;;;;;;21.52;47.67;95307.88;2081840;28;1013;-64
2022/06/02 01:09:38;;;;;;;;;;;;;;;21.50;47.69;95307.28;2081813;28;1130;-63
2022/06/02 01:10:47;;;;;;;;;;;;;;;21.50;47.69;95297.38;2079860;28;1481;-63
2022/06/02 01:11:55;;;;;;;;;;;;;;;21.49;47.69;95294.94;2080756;28;1604;-63
2022/06/02 01:13:09;;;;;;;;;;;;;;;21.47;47.64;95305.84;2080540;28;1538;-63
2022/06/02 01:14:20;;;;;;;;;;;;;;;21.44;48.06;95306.25;2079462;28;1492;-64
2022/06/02 01:15:27;;;;;;;;;;;;;;;21.43;48.18;95312.66;2082546;28;1493;-64
2022/06/02 01:16:32;;;;;;;;;;;;;;;21.43;48.29;95312.66;2083232;28;1003;-64
2022/06/02 01:17:40;;;;;;;;;;;;;;;21.43;48.31;95304.63;2077391;28;1111;-64
2022/06/02 01:18:47;;;;;;;;;;;;;;;21.48;48.30;95302.13;2082030;28;1467;-65
2022/06/02 01:19:59;;;;;;;;;;;;;;;21.44;48.36;95308.94;2083042;28;1975;-64
2022/06/02 01:21:27;;;;;;;;;;;;;;;21.38;48.06;95305.25;2083346;28;1061;-66
2022/06/02 01:22:46;;;;;;;;;;;;;;;21.38;48.13;95305.25;2074934;28;1298;-63
2022/06/02 01:24:09;;;;;;;;;;;;;;;21.37;48.29;95302.75;2081483;28;1519;-63
2022/06/02 01:25:21;;;;;;;;;;;;;;;21.32;48.47;95307.94;2082353;28;1429;-63
2022/06/02 01:26:45;;;;;;;;;;;;;;;21.35;48.55;95311.00;2081633;28;1622;-63
2022/06/02 01:28:00;;;;;;;;;;;;;;;21.48;48.83;95303.97;2082111;28;1430;-64
2022/06/02 01:29:10;;;;;;;;;;;;;;;21.38;48.40;95304.41;2074433;28;1185;-64
2022/06/02 01:30:20;;;;;;;;;;;;;;;21.28;48.97;95302.16;2082336;28;1480;-64
2022/06/02 01:31:36;;;;;;;;;;;;;;;21.60;47.89;95300.44;2082730;28;1462;-64
2022/06/02 01:32:42;;;;;;;;;;;;;;;21.88;47.38;95297.47;2082963;28;1122;-64
2022/06/02 01:33:50;;;;;;;;;;;;;;;22.06;47.02;95290.63;2081688;28;1543;-64
2022/06/02 01:34:56;;;;;;;;;;;;;;;22.18;46.59;95296.09;2082518;28;1094;-65
2022/06/02 01:36:04;;;;;;;;;;;;;;;22.28;46.59;95293.75;2082573;28;1678;-64
2022/06/02 01:37:12;;;;;;;;;;;;;;;22.33;46.43;95297.44;2076662;28;1921;-63
2022/06/02 01:38:16;;;;;;;;;;;;;;;22.37;46.16;95292.50;2083020;28;1062;-63
2022/06/02 01:39:26;;;;;;;;;;;;;;;22.40;46.27;95297.41;2082410;28;1555;-64
2022/06/02 01:40:33;;;;;;;;;;;;;;;22.43;45.96;95299.66;2073121;28;1903;-64
2022/06/02 01:41:44;;;;;;;;;;;;;;;22.45;45.97;95299.41;2081134;28;1522;-63
2022/06/02 01:42:57;;;;;;;;;;;;;;;22.43;46.06;95294.28;2081765;28;1434;-63
2022/06/02 01:44:06;;;;;;;;;;;;;;;22.49;46.07;95293.44;2082702;28;1446;-62
2022/06/02 01:45:13;;;;;;;;;;;;;;;22.51;45.97;95288.69;2083160;28;1097;-63
2022/06/02 01:46:20;;;;;;;;;;;;;;;22.53;46.00;95297.31;2081945;28;1759;-63
2022/06/02 01:47:32;;;;;;;;;;;;;;;22.57;45.94;95298.53;2081883;28;1455;-63
2022/06/02 01:48:38;;;;;;;;;;;;;;;22.59;45.78;95300.97;2082890;28;1174;-62
2022/06/02 01:49:47;;;;;;;;;;;;;;;22.60;45.79;95305.31;2082751;28;1697;-64
2022/06/02 01:50:55;;;;;;;;;;;;;;;22.60;45.94;95302.63;2082850;28;1072;-65
2022/06/02 01:52:04;;;;;;;;;;;;;;;22.61;45.73;95304.25;2074797;28;1546;-62
2022/06/02 01:53:14;;;;;;;;;;;;;;;22.62;45.68;95299.72;2082456;28;1405;-71
2022/06/02 01:54:25;;;;;;;;;;;;;;;22.63;45.64;95296.84;2083068;28;1115;-72
2022/06/02 01:55:37;;;;;;;;;;;;;;;22.63;45.89;95296.00;2074593;28;1126;-75
2022/06/02 01:56:53;;;;;;;;;;;;;;;22.65;45.70;95299.28;2080437;28;1488;-76
2022/06/02 01:58:02;;;;;;;;;;;;;;;22.67;45.97;95294.53;2082906;28;1010;-75
2022/06/02 01:59:22;;;;;;;;;;;;;;;22.68;45.78;95298.84;2081959;28;1493;-70
2022/06/02 02:00:26;;;;;;;;;;;;;;;22.67;45.98;95297.22;2082097;28;1906;-72
2022/06/02 02:01:35;;;;;;;;;;;;;;;22.67;45.71;95307.91;2082745;28;1058;-73
2022/06/02 02:02:46;;;;;;;;;;;;;;;22.66;45.98;95298.25;2077695;28;1472;-72
2022/06/02 02:03:55;;;;;;;;;;;;;;;22.66;45.97;95296.41;2077322;28;1642;-70
2022/06/02 02:05:06;;;;;;;;;;;;;;;22.66;45.82;95300.94;2075305;28;1464;-69
2022/06/02 02:06:15;;;;;;;;;;;;;;;22.68;45.69;95301.50;2079260;28;1536;-72
2022/06/02 02:07:20;;;;;;;;;;;;;;;22.69;45.91;95304.00;2082475;28;1612;-71
2022/06/02 02:08:29;;;;;;;;;;;;;;;22.70;45.59;95299.44;2081964;28;1551;-71
2022/06/02 02:09:38;;;;;;;;;;;;;;;22.71;45.87;95301.13;2082345;28;1446;-74
2022/06/02 02:10:48;;;;;;;;;;;;;;;22.71;45.66;95291.25;2083421;28;1033;-73
2022/06/02 02:11:50;;;;;;;;;;;;;;;22.75;45.58;95295.09;2082049;28;1657;-74
2022/06/02 02:12:59;;;;;;;;;;;;;;;22.74;45.52;95293.47;2083011;28;1507;-72
2022/06/02 02:14:05;;;;;;;;;;;;;;;22.76;45.67;95303.97;2075104;28;1563;-71
2022/06/02 02:15:15;;;;;;;;;;;;;;;22.77;45.42;95294.91;2077167;28;1602;-74
2022/06/02 02:16:20;;;;;;;;;;;;;;;22.78;45.47;95288.50;2076405;28;1476;-68
2022/06/02 02:17:40;;;;;;;;;;;;;;;22.77;45.55;95286.88;2081920;28;1470;-72
2022/06/02 02:18:52;;;;;;;;;;;;;;;22.77;45.23;95286.88;2082688;28;1193;-71
2022/06/02 02:19:58;;;;;;;;;;;;;;;22.76;45.32;95285.22;2079540;28;1507;-69
2022/06/02 02:21:05;;;;;;;;;;;;;;;22.76;45.32;95287.88;2074922;28;1910;-73
2022/06/02 02:22:13;;;;;;;;;;;;;;;22.76;45.11;95285.22;2074447;28;1403;-71
2022/06/02 02:23:19;;;;;;;;;;;;;;;22.77;45.08;95289.56;2074851;28;1030;-72
2022/06/02 02:24:28;;;;;;;;;;;;;;;22.78;45.26;95283.13;2074429;28;1138;-71
2022/06/02 02:25:34;;;;;;;;;;;;;;;22.79;45.30;95284.78;2069907;28;1866;-72
2022/06/02 02:26:40;;;;;;;;;;;;;;;22.79;45.06;95288.28;2075839;28;1406;-69
2022/06/02 02:28:05;;;;;;;;;;;;;;;22.81;45.34;95282.69;2081965;28;1365;-72
2022/06/02 02:29:17;;;;;;;;;;;;;;;22.82;45.15;95289.69;2082866;28;1007;-71
2022/06/02 02:30:23;;;;;;;;;;;;;;;22.83;45.00;95285.19;2081865;28;1536;-71
2022/06/02 02:31:33;;;;;;;;;;;;;;;22.83;45.21;95286.00;2083170;28;1119;-72
2022/06/02 02:32:46;;;;;;;;;;;;;;;22.82;44.91;95284.31;2080674;28;1615;-70
2022/06/02 02:33:56;;;;;;;;;;;;;;;22.83;44.97;95285.19;2083439;28;1097;-73
2022/06/02 02:35:03;;;;;;;;;;;;;;;22.83;45.13;95286.00;2082240;28;1098;-69
2022/06/02 02:36:11;;;;;;;;;;;;;;;22.82;45.07;95278.97;2082729;28;1757;-71
2022/06/02 02:37:16;;;;;;;;;;;;;;;22.83;45.08;95282.50;2065754;28;1084;-70
2022/06/02 02:38:22;;;;;;;;;;;;;;;22.85;45.04;95289.28;2077985;28;1584;-68
2022/06/02 02:39:30;;;;;;;;;;;;;;;22.93;44.89;95285.47;2081664;28;1468;-73
2022/06/02 02:40:37;;;;;;;;;;;;;;;22.98;44.83;95283.78;2081827;28;1986;-72
2022/06/02 02:41:43;;;;;;;;;;;;;;;23.02;44.86;95286.84;2081984;28;1497;-73
2022/06/02 02:42:51;;;;;;;;;;;;;;;23.03;44.85;95283.13;2081797;28;1496;-73
2022/06/02 02:43:57;;;;;;;;;;;;;;;23.06;44.77;95279.19;2082725;28;1073;-71
2022/06/02 02:45:06;;;;;;;;;;;;;;;23.08;44.70;95277.09;2082373;28;1920;-72
2022/06/02 02:46:13;;;;;;;;;;;;;;;23.09;44.65;95284.94;2080874;28;1494;-72
2022/06/02 02:47:19;;;;;;;;;;;;;;;23.11;44.43;95282.84;2081523;28;1542;-73
2022/06/02 02:48:28;;;;;;;;;;;;;;;23.10;44.52;95280.38;2068959;28;1488;-74
2022/06/02 02:49:37;;;;;;;;;;;;;;;23.12;44.57;95279.13;2081218;28;1704;-73
2022/06/02 02:50:44;;;;;;;;;;;;;;;23.14;44.42;95286.94;2081517;28;1139;-72
2022/06/02 02:51:51;;;;;;;;;;;;;;;23.15;44.39;95283.22;2081977;28;1535;-73
2022/06/02 02:52:58;;;;;;;;;;;;;;;23.15;44.35;95280.53;2082586;28;1748;-73
2022/06/02 02:54:04;;;;;;;;;;;;;;;23.17;44.66;95281.16;2081932;28;1473;-67
2022/06/02 02:55:09;;;;;;;;;;;;;;;23.17;44.66;95283.81;2080513;28;1481;-72
2022/06/02 02:56:15;;;;;;;;;;;;;;;23.17;44.52;95287.31;2073886;28;1497;-74
2022/06/02 02:57:22;;;;;;;;;;;;;;;23.16;44.48;95292.91;2074393;28;1631;-69
2022/06/02 02:58:28;;;;;;;;;;;;;;;23.15;44.39;95288.59;2079591;28;1506;-72
2022/06/02 02:59:36;;;;;;;;;;;;;;;23.17;44.29;95292.69;2075516;28;1804;-72
2022/06/02 03:00:41;;;;;;;;;;;;;;;23.17;44.51;95297.22;2076885;28;1681;-73
2022/06/02 03:01:48;;;;;;;;;;;;;;;23.20;44.51;95299.47;2081864;28;1525;-73
2022/06/02 03:02:57;;;;;;;;;;;;;;;23.13;44.19;95296.00;2074378;28;1122;-74
2022/06/02 03:04:19;;;;;;;;;;;;;;;22.77;45.30;95300.25;2078940;28;1492;-74
2022/06/02 03:05:26;;;;;;;;;;;;;;;22.68;45.46;95299.69;2082436;28;1059;-69
2022/06/02 03:06:31;;;;;;;;;;;;;;;22.35;45.82;95294.56;2081386;28;1568;-69
2022/06/02 03:07:34;;;;;;;;;;;;;;;22.07;46.27;95298.41;2082700;28;1213;-67
2022/06/02 03:08:43;;;;;;;;;;;;;;;21.92;46.54;95294.34;2082126;28;1545;-67
2022/06/02 03:09:54;;;;;;;;;;;;;;;21.75;47.16;95296.69;2081563;28;1555;-69
2022/06/02 03:11:01;;;;;;;;;;;;;;;21.65;47.43;95305.16;2077152;28;1741;-67
2022/06/02 03:12:09;;;;;;;;;;;;;;;21.61;47.42;95299.41;2077826;28;1551;-68
2022/06/02 03:13:21;;;;;;;;;;;;;;;21.52;47.45;95300.69;2081122;28;1499;-68
2022/06/02 03:14:31;;;;;;;;;;;;;;;21.44;47.28;95301.72;2082255;28;1073;-68
2022/06/02 03:15:37;;;;;;;;;;;;;;;21.42;47.28;95306.44;2082155;28;1054;-68
2022/06/02 03:16:40;;;;;;;;;;;;;;;21.31;47.59;95306.28;2082458;28;1097;-68
2022/06/02 03:17:51;;;;;;;;;;;;;;;21.30;47.36;95307.31;2082284;28;1358;-68
2022/06/02 03:19:01;;;;;;;;;;;;;;;21.30;47.38;95302.78;2073570;28;1459;-68
2022/06/02 03:20:08;;;;;;;;;;;;;;;21.31;47.26;95308.94;2079824;28;1741;-65
2022/06/02 03:21:16;;;;;;;;;;;;;;;21.20;47.54;95308.56;2075817;28;1902;-68
2022/06/02 03:22:30;;;;;;;;;;;;;;;21.15;47.62;95304.84;2077386;28;1761;-65
2022/06/02 03:23:57;;;;;;;;;;;;;;;21.09;47.88;95306.50;2080029;28;1476;-67
2022/06/02 03:25:03;;;;;;;;;;;;;;;21.05;47.89;95307.13;2060785;28;1761;-68
2022/06/02 03:26:09;;;;;;;;;;;;;;;20.99;48.15;95311.44;2075327;28;1549;-68
2022/06/02 03:27:17;;;;;;;;;;;;;;;21.03;47.95;95310.00;2081280;28;1525;-69
2022/06/02 03:28:23;;;;;;;;;;;;;;;20.98;47.92;95315.16;2081676;28;1383;-68
2022/06/02 03:29:32;;;;;;;;;;;;;;;20.93;48.25;95323.75;2081757;28;1770;-69
2022/06/02 03:30:38;;;;;;;;;;;;;;;20.84;48.57;95324.19;2078713;28;1767;-69
2022/06/02 03:31:46;;;;;;;;;;;;;;;20.86;48.38;95320.28;2077905;28;1240;-69
2022/06/02 03:33:13;;;;;;;;;;;;;;;20.90;48.27;95328.72;2077556;28;1254;-69
2022/06/02 03:34:22;;;;;;;;;;;;;;;20.93;47.89;95326.44;2076689;28;1382;-68
2022/06/02 03:35:27;;;;;;;;;;;;;;;20.89;47.92;95319.88;2082486;28;1577;-68
2022/06/02 03:36:47;;;;;;;;;;;;;;;20.83;48.36;95325.19;2081718;28;1118;-68
2022/06/02 03:37:56;;;;;;;;;;;;;;;20.87;48.34;95321.09;2080420;28;1554;-68
2022/06/02 03:39:01;;;;;;;;;;;;;;;20.88;48.17;95325.41;2082209;28;1227;-68
2022/06/02 03:40:22;;;;;;;;;;;;;;;20.83;48.10;95318.03;2082550;28;1072;-69
2022/06/02 03:41:29;;;;;;;;;;;;;;;20.95;48.07;95316.38;2081460;28;1988;-69
2022/06/02 03:42:37;;;;;;;;;;;;;;;20.89;48.20;95321.72;2082440;28;1616;-69
2022/06/02 03:43:44;;;;;;;;;;;;;;;20.89;48.02;95317.22;2082453;28;1110;-68
2022/06/02 03:44:54;;;;;;;;;;;;;;;21.54;47.17;95320.00;2076630;28;2017;-69
2022/06/02 03:46:12;;;;;;;;;;;;;;;21.44;46.93;95323.09;2077229;28;1662;-69
2022/06/02 03:47:19;;;;;;;;;;;;;;;21.43;47.54;95323.34;2075077;28;1816;-68
2022/06/02 03:48:31;;;;;;;;;;;;;;;21.26;47.76;95314.13;2081133;28;1576;-65
2022/06/02 03:49:55;;;;;;;;;;;;;;;21.20;47.59;95316.59;2082111;28;1027;-65
2022/06/02 03:51:25;;;;;;;;;;;;;;;20.98;48.41;95317.81;2082612;28;1096;-68
2022/06/02 03:52:34;;;;;;;;;;;;;;;21.40;49.08;95319.22;2040916;29;1422;-71
2022/06/02 03:53:52;;;;;;;;;;;;;;;21.43;48.65;95318.81;2071609;28;1470;-72
2022/06/02 03:55:00;;;;;;;;;;;;;;;21.23;48.27;95318.84;2073936;28;1471;-68
2022/06/02 03:56:09;;;;;;;;;;;;;;;20.94;49.47;95322.75;2074500;28;1590;-68
2022/06/02 03:57:20;;;;;;;;;;;;;;;20.79;49.53;95317.59;2070239;28;1669;-67
2022/06/02 03:58:32;;;;;;;;;;;;;;;20.70;50.22;95321.50;2078948;28;1692;-68
2022/06/02 03:59:56;;;;;;;;;;;;;;;20.64;50.05;95329.53;2078759;28;1106;-68
2022/06/02 04:01:01;;;;;;;;;;;;;;;20.60;50.33;95318.44;2078708;28;1785;-68
2022/06/02 04:02:07;;;;;;;;;;;;;;;20.53;50.60;95330.94;2079898;28;1905;-68
2022/06/02 04:03:13;;;;;;;;;;;;;;;20.52;50.63;95315.97;2079692;28;1296;-65
2022/06/02 04:04:28;;;;;;;;;;;;;;;20.49;50.85;95329.72;2079172;28;1208;-68
2022/06/02 04:05:49;;;;;;;;;;;;;;;20.48;50.76;95320.88;2078820;28;1448;-67
2022/06/02 04:07:03;;;;;;;;;;;;;;;20.50;50.53;95320.69;2072385;28;1261;-67
2022/06/02 04:08:24;;;;;;;;;;;;;;;20.62;50.33;95323.56;2069196;28;1626;-67
2022/06/02 04:09:31;;;;;;;;;;;;;;;20.64;50.65;95325.00;2072318;28;1513;-74
2022/06/02 04:10:37;;;;;;;;;;;;;;;20.62;50.56;95318.22;2070885;28;1680;-69
2022/06/02 04:13:37;;;;;;;;;;;;;;;20.54;50.79;95308.56;2072377;28;1102;-67
2022/06/02 04:14:43;;;;;;;;;;;;;;;20.34;50.71;95314.69;2068120;28;1536;-65
2022/06/02 04:15:51;;;;;;;;;;;;;;;20.30;51.61;95316.09;2071337;28;1726;-67
2022/06/02 04:16:57;;;;;;;;;;;;;;;20.27;51.16;95315.69;2071980;28;1778;-68
2022/06/02 04:18:02;;;;;;;;;;;;;;;20.24;51.67;95316.91;2070566;28;1522;-66
2022/06/02 04:20:53;;;;;;;;;;;;;;;20.52;51.26;95307.97;2072124;28;1508;-67
2022/06/02 04:22:00;;;;;;;;;;;;;;;20.63;50.35;95309.16;2073616;28;1902;-68
2022/06/02 04:23:21;;;;;;;;;;;;;;;20.70;50.01;95307.34;2072146;28;1526;-68
2022/06/02 04:24:31;;;;;;;;;;;;;;;20.51;50.76;95312.44;2073541;28;1630;-67
2022/06/02 04:25:39;;;;;;;;;;;;;;;20.45;51.06;95309.78;2072901;28;1170;-67
2022/06/02 04:26:52;;;;;;;;;;;;;;;20.40;51.15;95301.56;2073410;28;1219;-68
2022/06/02 04:28:00;;;;;;;;;;;;;;;20.44;51.00;95303.63;2073708;28;1101;-67
2022/06/02 04:29:09;;;;;;;;;;;;;;;20.49;50.86;95300.34;2073560;28;1125;-68
2022/06/02 04:30:17;;;;;;;;;;;;;;;20.48;50.80;95299.50;2070170;28;1042;-68
2022/06/02 04:31:25;;;;;;;;;;;;;;;20.54;50.77;95295.19;2069065;28;1204;-67
2022/06/02 04:32:35;;;;;;;;;;;;;;;20.53;50.74;95304.25;2074169;28;1054;-69
2022/06/02 04:33:42;;;;;;;;;;;;;;;20.54;50.94;95303.22;2074127;28;1058;-65
2022/06/02 04:34:51;;;;;;;;;;;;;;;20.55;50.72;95299.53;2074154;28;1596;-68
2022/06/02 04:36:00;;;;;;;;;;;;;;;20.49;50.96;95301.16;2074050;28;1135;-68
2022/06/02 04:37:08;;;;;;;;;;;;;;;20.50;51.27;95304.66;2074355;28;1045;-68
2022/06/02 04:38:17;;;;;;;;;;;;;;;20.58;50.68;95309.81;2074036;28;1070;-68
2022/06/02 04:39:26;;;;;;;;;;;;;;;20.58;50.75;95309.00;2073731;28;1330;-67
2022/06/02 04:40:39;;;;;;;;;;;;;;;20.60;50.74;95302.41;2073663;28;1528;-68
2022/06/02 04:41:45;;;;;;;;;;;;;;;20.65;50.62;95310.63;2069080;28;1491;-68
2022/06/02 04:42:50;;;;;;;;;;;;;;;20.60;51.05;95307.75;2069586;28;1989;-68
2022/06/02 04:43:58;;;;;;;;;;;;;;;20.50;50.96;95308.16;2073617;28;1034;-68
2022/06/02 04:45:08;;;;;;;;;;;;;;;20.46;51.29;95306.91;2073146;28;1142;-67
2022/06/02 04:46:17;;;;;;;;;;;;;;;20.43;51.60;95312.66;2072995;28;1504;-68
2022/06/02 04:47:23;;;;;;;;;;;;;;;20.46;51.54;95306.91;2072624;28;1058;-68
2022/06/02 04:48:30;;;;;;;;;;;;;;;20.47;51.84;95307.75;2075031;28;1122;-67
2022/06/02 04:49:37;;;;;;;;;;;;;;;20.58;51.30;95304.47;2075710;28;998;-67
2022/06/02 04:50:43;;;;;;;;;;;;;;;20.58;51.63;95309.81;2076192;28;1106;-67
2022/06/02 04:51:50;;;;;;;;;;;;;;;20.63;51.40;95307.34;2075791;28;1017;-67
2022/06/02 04:52:54;;;;;;;;;;;;;;;20.61;51.33;95308.56;2071604;28;1070;-68
2022/06/02 04:54:01;;;;;;;;;;;;;;;20.69;51.33;95311.88;2071059;28;1090;-67
2022/06/02 04:55:06;;;;;;;;;;;;;;;20.77;50.89;95309.00;2075352;28;1118;-67
2022/06/02 04:56:14;;;;;;;;;;;;;;;20.79;51.28;95308.78;2076135;28;1105;-68
2022/06/02 04:57:22;;;;;;;;;;;;;;;20.78;51.01;95312.47;2075637;28;1294;-67
2022/06/02 04:58:29;;;;;;;;;;;;;;;20.72;51.87;95311.44;2076229;28;1090;-68
2022/06/02 04:59:36;;;;;;;;;;;;;;;20.71;51.82;95312.47;2075752;28;1496;-67
2022/06/02 05:00:43;;;;;;;;;;;;;;;20.69;52.52;95317.22;2076489;28;1106;-67
2022/06/02 05:01:56;;;;;;;;;;;;;;;20.65;52.43;95309.78;2076625;28;1281;-68
2022/06/02 05:03:03;;;;;;;;;;;;;;;20.69;51.99;95317.22;2076435;28;2009;-68
2022/06/02 05:04:12;;;;;;;;;;;;;;;20.70;51.85;95318.84;2072715;28;1674;-66
2022/06/02 05:05:18;;;;;;;;;;;;;;;20.75;51.82;95321.72;2071535;28;1165;-68
2022/06/02 05:06:25;;;;;;;;;;;;;;;20.75;51.66;95321.72;2077005;28;1076;-68
2022/06/02 05:07:32;;;;;;;;;;;;;;;20.79;51.79;95322.13;2076501;28;1122;-68
2022/06/02 05:08:59;;;;;;;;;;;;;;;20.78;52.05;95315.97;2078453;28;1244;-68
2022/06/02 05:10:06;;;;;;;;;;;;;;;20.76;51.94;95318.00;2064784;28;1203;-68
2022/06/02 05:11:17;;;;;;;;;;;;;;;20.71;52.62;95319.66;2084850;28;1070;-68
2022/06/02 05:12:23;;;;;;;;;;;;;;;20.66;52.58;95320.28;2084896;28;1014;-67
2022/06/02 05:13:29;;;;;;;;;;;;;;;20.75;52.24;95315.56;2084947;28;1045;-68
2022/06/02 05:14:32;;;;;;;;;;;;;;;20.75;52.33;95327.06;2084895;28;1022;-68
2022/06/02 05:15:53;;;;;;;;;;;;;;;20.84;51.98;95318.84;2080155;28;1045;-68
2022/06/02 05:17:00;;;;;;;;;;;;;;;20.84;52.17;95332.22;2079921;28;1272;-67
2022/06/02 05:18:15;;;;;;;;;;;;;;;20.83;52.38;95334.06;2084445;28;1061;-68
2022/06/02 05:19:25;;;;;;;;;;;;;;;20.78;52.55;95337.34;2084858;28;1014;-68
2022/06/02 05:20:46;;;;;;;;;;;;;;;20.87;52.32;95329.13;2084439;28;1178;-68
2022/06/02 05:22:05;;;;;;;;;;;;;;;20.90;51.93;95334.06;2084756;28;1105;-67
2022/06/02 05:23:15;;;;;;;;;;;;;;;20.98;51.80;95333.84;2084334;28;1993;-68
2022/06/02 05:24:37;;;;;;;;;;;;;;;21.08;51.44;95334.22;2084811;28;1022;-68
2022/06/02 05:25:44;;;;;;;;;;;;;;;21.10;51.45;95332.19;2084634;28;1495;-67
2022/06/02 05:27:07;;;;;;;;;;;;;;;21.09;51.60;95332.41;2081399;28;1066;-66
2022/06/02 05:28:37;;;;;;;;;;;;;;;21.28;51.68;95330.75;2080012;28;1185;-67
2022/06/02 05:30:01;;;;;;;;;;;;;;;21.41;50.99;95334.22;2084877;28;1021;-67
2022/06/02 05:31:13;;;;;;;;;;;;;;;21.52;50.71;95342.66;2078389;28;1096;-68
2022/06/02 05:32:22;;;;;;;;;;;;;;;21.57;50.83;95337.47;2084137;28;1097;-68
2022/06/02 05:33:46;;;;;;;;;;;;;;;21.72;50.57;95332.72;2084360;28;1339;-68
2022/06/02 05:35:13;;;;;;;;;;;;;;;21.84;50.50;95339.03;2084673;28;1130;-68
2022/06/02 05:36:33;;;;;;;;;;;;;;;21.89;50.65;95335.72;2056843;28;1297;-67
2022/06/02 05:37:48;;;;;;;;;;;;;;;21.85;50.67;95334.50;2063607;28;1090;-67
2022/06/02 05:39:06;;;;;;;;;;;;;;;21.95;49.99;95332.25;2067515;28;1148;-67
2022/06/02 05:40:15;;;;;;;;;;;;;;;22.00;50.22;95329.75;2076179;28;1138;-68
2022/06/02 05:41:26;;;;;;;;;;;;;;;22.00;50.06;95334.28;2076160;28;1412;-68
2022/06/02 05:42:36;;;;;;;;;;;;;;;22.05;49.88;95331.78;2076622;28;1095;-68
2022/06/02 05:43:43;;;;;;;;;;;;;;;22.00;49.89;95340.44;2076538;28;1969;-67
2022/06/02 05:44:50;;;;;;;;;;;;;;;22.06;49.78;95344.94;2076412;28;1074;-67
2022/06/02 05:46:16;;;;;;;;;;;;;;;22.15;49.72;95334.81;2076358;28;1130;-67
2022/06/02 05:47:29;;;;;;;;;;;;;;;22.25;49.55;95331.66;2076100;28;1557;-67
2022/06/02 05:48:40;;;;;;;;;;;;;;;22.30;49.82;95334.53;2076283;28;1018;-68
2022/06/02 05:49:47;;;;;;;;;;;;;;;22.31;50.01;95337.00;2071965;28;1165;-68
2022/06/02 05:50:54;;;;;;;;;;;;;;;22.27;49.62;95337.63;2071285;28;1465;-68
2022/06/02 05:52:02;;;;;;;;;;;;;;;22.16;49.95;95336.44;2076433;28;1069;-67
2022/06/02 05:53:10;;;;;;;;;;;;;;;22.17;49.64;95345.28;2076373;28;1119;-67
2022/06/02 05:54:29;;;;;;;;;;;;;;;22.20;49.50;95336.88;2076270;28;1054;-68
2022/06/02 05:55:37;;;;;;;;;;;;;;;22.24;49.53;95340.75;2076627;28;1003;-68
2022/06/02 05:56:45;;;;;;;;;;;;;;;22.15;49.35;95339.34;2077148;28;1059;-68
2022/06/02 05:57:52;;;;;;;;;;;;;;;22.06;49.53;95341.47;2076730;28;1038;-67
2022/06/02 05:59:08;;;;;;;;;;;;;;;21.98;49.51;95342.50;2076742;28;1102;-68
2022/06/02 06:00:17;;;;;;;;;;;;;;;21.89;49.92;95341.91;2074505;28;1126;-68
2022/06/02 06:01:28;;;;;;;;;;;;;;;21.97;49.58;95338.19;2070033;28;1570;-68
2022/06/02 06:03:00;;;;;;;;;;;;;;;22.06;49.53;95339.59;2073670;28;1021;-68
2022/06/02 06:04:17;;;;;;;;;;;;;;;22.17;49.30;95346.13;2041958;29;1915;-69
2022/06/02 06:05:26;;;;;;;;;;;;;;;22.21;49.21;95344.66;2040981;29;1300;-68
2022/06/02 06:06:30;;;;;;;;;;;;;;;22.30;49.21;95346.06;2055095;28;1102;-68
2022/06/02 06:07:43;;;;;;;;;;;;;;;22.42;49.34;95348.88;2075242;28;1611;-68
2022/06/02 06:08:53;;;;;;;;;;;;;;;22.54;49.09;95347.16;2074391;28;1254;-68
2022/06/02 06:10:01;;;;;;;;;;;;;;;22.56;48.87;95345.09;2075411;28;1058;-68
2022/06/02 06:11:10;;;;;;;;;;;;;;;22.50;49.00;95353.97;2075344;28;1577;-67
2022/06/02 06:12:23;;;;;;;;;;;;;;;22.62;48.91;95347.94;2071390;28;1157;-67
2022/06/02 06:13:47;;;;;;;;;;;;;;;22.67;48.89;95345.44;2070311;28;1583;-68
2022/06/02 06:14:55;;;;;;;;;;;;;;;22.56;49.36;95338.91;2042664;28;1241;-68
2022/06/02 06:16:00;;;;;;;;;;;;;;;22.38;49.43;95336.13;2075363;28;1015;-68